Time;durP1;ratioP1;P1;durP2;ratioP2;P2;SDS_P1;SDS_P2;PMS_P1;PMS_P2;Temp;Humidity;BMP_temperature;BMP_pressure;BME280_temperature;BME280_humidity;BME280_pressure;Samples;Min_cycle;Max_cycle;Signal;HPM_P1;HPM_P2
2021/10/18 00:00:09;;;;;;;3.10;1.80;;;21.80;49.00;;;;;;4978047;28;20478;-59
2021/10/18 00:02:35;;;;;;;2.45;1.90;;;21.80;48.90;;;;;;4995290;28;20763;-60
2021/10/18 00:05:01;;;;;;;2.97;1.90;;;21.80;48.80;;;;;;4995284;28;20405;-60
2021/10/18 00:07:27;;;;;;;3.42;1.80;;;21.80;49.00;;;;;;4995284;28;20387;-59
2021/10/18 00:09:52;;;;;;;3.67;2.00;;;21.80;48.90;;;;;;4994771;28;20406;-60
2021/10/18 00:12:18;;;;;;;2.83;2.00;;;21.80;48.90;;;;;;4994851;28;20488;-60
2021/10/18 00:14:43;;;;;;;2.53;1.63;;;21.80;48.90;;;;;;4994530;28;20418;-60
2021/10/18 00:17:09;;;;;;;2.30;1.70;;;21.80;49.00;;;;;;4995125;28;20425;-59
2021/10/18 00:19:35;;;;;;;2.87;1.97;;;21.70;48.70;;;;;;4994677;28;20407;-60
2021/10/18 00:22:02;;;;;;;2.30;1.90;;;21.70;48.80;;;;;;4995060;28;20839;-60
2021/10/18 00:24:27;;;;;;;2.22;1.67;;;21.70;48.70;;;;;;4995049;28;20427;-59
2021/10/18 00:26:53;;;;;;;2.60;1.67;;;21.80;48.80;;;;;;4994895;28;20879;-59
2021/10/18 00:29:19;;;;;;;2.20;1.60;;;21.70;48.70;;;;;;4994621;28;20398;-60
2021/10/18 00:31:44;;;;;;;3.88;1.98;;;21.70;48.70;;;;;;4976883;28;20401;-59
2021/10/18 00:34:10;;;;;;;2.90;1.60;;;21.70;48.70;;;;;;4993542;28;20766;-60
2021/10/18 00:36:36;;;;;;;3.30;1.77;;;21.70;48.80;;;;;;4976871;28;20441;-59
2021/10/18 00:39:02;;;;;;;2.43;1.70;;;21.70;48.70;;;;;;4994773;28;20401;-60
2021/10/18 00:41:28;;;;;;;3.17;1.60;;;21.70;48.80;;;;;;4994714;28;20477;-59
2021/10/18 00:43:55;;;;;;;3.00;1.90;;;21.70;48.40;;;;;;4994168;28;20485;-60
2021/10/18 00:46:22;;;;;;;2.83;1.70;;;21.70;48.80;;;;;;4994510;28;20422;-60
2021/10/18 00:48:53;;;;;;;2.10;1.57;;;21.60;48.60;;;;;;4994500;28;20419;-60
2021/10/18 00:51:21;;;;;;;2.22;1.77;;;21.60;48.60;;;;;;4994604;28;20408;-59
2021/10/18 00:53:48;;;;;;;1.92;1.50;;;21.60;48.50;;;;;;4993914;28;20512;-60
2021/10/18 00:56:14;;;;;;;2.55;1.50;;;21.60;48.60;;;;;;4994512;28;20383;-60
2021/10/18 00:58:42;;;;;;;2.13;1.60;;;21.60;48.60;;;;;;4994388;28;20394;-60
2021/10/18 01:01:08;;;;;;;2.90;1.67;;;21.60;48.60;;;;;;4994293;28;20407;-59
2021/10/18 01:03:35;;;;;;;2.27;1.37;;;21.60;48.50;;;;;;4994022;28;20399;-59
2021/10/18 01:06:01;;;;;;;3.30;1.75;;;21.60;48.50;;;;;;4994052;28;20886;-60
2021/10/18 01:08:27;;;;;;;2.58;1.50;;;21.60;48.50;;;;;;4994265;28;20417;-60
2021/10/18 01:10:53;;;;;;;2.50;1.60;;;21.60;48.50;;;;;;4994131;28;20412;-60
2021/10/18 01:13:18;;;;;;;2.70;1.50;;;21.60;48.40;;;;;;4976569;28;20442;-60
2021/10/18 01:15:44;;;;;;;2.80;1.60;;;21.60;48.50;;;;;;4993546;28;20878;-59
2021/10/18 01:18:10;;;;;;;1.70;1.48;;;21.60;48.40;;;;;;4994117;28;20386;-60
2021/10/18 01:20:37;;;;;;;1.95;1.33;;;21.60;48.40;;;;;;4993923;28;20724;-60
2021/10/18 01:23:05;;;;;;;2.30;1.50;;;21.50;48.30;;;;;;4993957;28;20394;-60
2021/10/18 01:25:30;;;;;;;1.58;1.40;;;21.50;48.30;;;;;;4993832;28;20928;-59
2021/10/18 01:27:56;;;;;;;1.92;1.45;;;21.60;48.30;;;;;;4993351;28;20402;-60
2021/10/18 01:30:24;;;;;;;2.13;1.50;;;21.50;48.30;;;;;;4993244;28;20440;-59
2021/10/18 01:32:49;;;;;;;2.37;1.60;;;21.50;48.20;;;;;;4993353;28;20474;-59
2021/10/18 01:35:15;;;;;;;1.70;1.40;;;21.50;48.30;;;;;;4993779;28;20970;-60
2021/10/18 01:37:42;;;;;;;2.20;1.58;;;21.50;48.20;;;;;;4975680;28;20398;-59
2021/10/18 01:40:19;;;;;;;2.55;1.63;;;21.50;48.20;;;;;;4993699;28;20434;-60
2021/10/18 01:42:45;;;;;;;1.63;1.30;;;21.50;48.20;;;;;;4993489;28;20473;-59
2021/10/18 01:45:14;;;;;;;1.80;1.40;;;21.50;48.00;;;;;;4975845;28;20426;-59
2021/10/18 01:47:40;;;;;;;1.88;1.40;;;21.50;48.10;;;;;;4975525;28;20406;-59
2021/10/18 01:50:08;;;;;;;2.90;1.40;;;21.50;48.20;;;;;;4975958;28;20410;-59
2021/10/18 01:52:33;;;;;;;2.45;1.48;;;21.40;48.10;;;;;;4993263;28;20425;-59
2021/10/18 01:54:59;;;;;;;2.03;1.30;;;21.40;48.20;;;;;;4993430;28;20477;-60
2021/10/18 01:57:24;;;;;;;1.27;1.10;;;21.40;48.10;;;;;;4993236;28;20397;-59
2021/10/18 01:59:50;;;;;;;2.00;1.10;;;21.50;48.20;;;;;;4992523;28;20402;-60
2021/10/18 02:02:16;;;;;;;2.00;1.52;;;21.40;47.90;;;;;;4993159;28;20895;-59
2021/10/18 02:04:41;;;;;;;1.50;1.23;;;21.40;47.60;;;;;;4993376;28;20489;-61
2021/10/18 02:07:07;;;;;;;2.70;1.20;;;21.40;48.00;;;;;;4992906;28;20432;-59
2021/10/18 02:09:32;;;;;;;1.83;1.33;;;21.40;47.80;;;;;;4992807;28;20387;-59
2021/10/18 02:11:58;;;;;;;1.55;1.20;;;21.40;47.80;;;;;;4992483;28;20418;-59
2021/10/18 02:14:24;;;;;;;1.67;1.10;;;21.40;48.00;;;;;;4975450;28;20418;-61
2021/10/18 02:16:50;;;;;;;2.08;1.30;;;21.40;48.00;;;;;;4992879;28;20398;-60
2021/10/18 02:19:15;;;;;;;2.65;1.30;;;21.40;47.90;;;;;;4992846;28;20410;-59
2021/10/18 02:21:41;;;;;;;1.77;1.10;;;21.30;47.90;;;;;;4975110;28;20398;-59
2021/10/18 02:24:07;;;;;;;1.63;1.10;;;21.40;47.90;;;;;;4992732;28;20399;-59
2021/10/18 02:26:32;;;;;;;2.20;1.50;;;21.40;48.00;;;;;;4992707;28;20480;-59
2021/10/18 02:28:58;;;;;;;1.48;1.20;;;21.40;47.90;;;;;;4992775;28;20556;-62
2021/10/18 02:31:24;;;;;;;1.27;1.10;;;21.30;47.80;;;;;;4992374;28;20442;-59
2021/10/18 02:33:50;;;;;;;1.70;1.25;;;21.30;47.70;;;;;;4992049;28;20882;-60
2021/10/18 02:36:15;;;;;;;2.13;1.20;;;21.30;47.80;;;;;;4992573;28;20891;-59
2021/10/18 02:38:41;;;;;;;1.52;1.20;;;21.30;47.70;;;;;;4992472;28;20461;-59
2021/10/18 02:41:08;;;;;;;1.40;1.00;;;21.30;47.80;;;;;;4992545;28;20910;-61
2021/10/18 02:43:33;;;;;;;2.08;1.35;;;21.30;48.40;;;;;;4992674;28;20401;-59
2021/10/18 02:45:59;;;;;;;1.67;1.30;;;21.30;48.30;;;;;;4974240;28;20410;-60
2021/10/18 02:48:25;;;;;;;2.20;1.20;;;21.30;47.60;;;;;;4991985;28;20410;-59
2021/10/18 02:50:52;;;;;;;2.47;1.23;;;21.30;47.80;;;;;;4974873;28;20403;-59
2021/10/18 02:53:19;;;;;;;1.63;1.10;;;21.30;47.70;;;;;;4992336;28;20418;-60
2021/10/18 02:55:45;;;;;;;2.23;1.10;;;21.30;47.50;;;;;;4991867;28;20961;-60
2021/10/18 02:58:11;;;;;;;1.87;1.10;;;21.30;47.70;;;;;;4991609;28;20449;-59
2021/10/18 03:00:37;;;;;;;1.50;1.00;;;21.30;47.60;;;;;;4992194;28;20390;-60
2021/10/18 03:03:02;;;;;;;1.30;1.00;;;21.30;47.70;;;;;;4991900;28;20424;-59
2021/10/18 03:05:28;;;;;;;3.47;1.10;;;21.30;47.60;;;;;;4992239;28;20390;-59
2021/10/18 03:07:54;;;;;;;5.13;1.10;;;21.30;48.00;;;;;;4991633;28;20413;-60
2021/10/18 03:10:21;;;;;;;3.60;1.27;;;21.20;48.30;;;;;;4992193;28;20386;-60
2021/10/18 03:12:47;;;;;;;2.85;1.20;;;21.30;48.60;;;;;;4992256;28;20429;-60
2021/10/18 03:15:12;;;;;;;1.92;1.00;;;21.30;48.60;;;;;;4992077;28;20394;-59
2021/10/18 03:17:38;;;;;;;4.33;1.40;;;21.30;49.10;;;;;;4991919;28;20382;-59
2021/10/18 03:20:05;;;;;;;7.22;1.30;;;21.30;50.00;;;;;;4991530;28;20402;-59
2021/10/18 03:22:30;;;;;;;7.70;1.60;;;21.40;49.90;;;;;;4991844;28;20929;-60
2021/10/18 03:24:56;;;;;;;8.32;1.48;;;21.40;50.30;;;;;;4991972;28;20398;-62
2021/10/18 03:27:21;;;;;;;3.90;1.40;;;21.40;50.20;;;;;;4983152;28;20403;-59
2021/10/18 03:29:48;;;;;;;6.97;1.40;;;21.50;50.30;;;;;;4982151;28;20513;-60
2021/10/18 03:32:14;;;;;;;5.78;1.35;;;21.50;50.20;;;;;;4981703;28;20453;-61
2021/10/18 03:34:40;;;;;;;4.00;1.30;;;21.60;50.30;;;;;;4981431;28;20421;-60
2021/10/18 03:37:05;;;;;;;10.60;1.43;;;21.50;49.70;;;;;;4979922;28;20403;-59
2021/10/18 03:39:32;;;;;;;4.78;1.40;;;21.50;50.70;;;;;;4979932;28;20400;-60
2021/10/18 03:41:58;;;;;;;11.90;1.50;;;21.50;50.40;;;;;;4981241;28;20409;-60
2021/10/18 03:44:23;;;;;;;15.82;1.77;;;21.60;50.80;;;;;;4981608;28;20896;-60
2021/10/18 03:46:49;;;;;;;11.27;1.50;;;21.60;50.60;;;;;;4980363;28;20878;-59
2021/10/18 03:49:15;;;;;;;9.93;1.33;;;21.60;51.00;;;;;;4982173;28;20402;-59
2021/10/18 03:51:41;;;;;;;8.53;1.47;;;21.60;51.00;;;;;;4981229;28;20391;-59
2021/10/18 03:54:06;;;;;;;5.28;0.90;;;21.60;51.10;;;;;;4980042;28;20422;-59
2021/10/18 03:56:32;;;;;;;4.20;1.13;;;21.60;50.20;;;;;;4982077;28;20424;-59
2021/10/18 03:58:58;;;;;;;3.17;1.03;;;21.60;50.30;;;;;;4983725;28;20406;-59
2021/10/18 04:01:24;;;;;;;4.75;1.30;;;21.50;50.10;;;;;;4991089;28;20401;-59
2021/10/18 04:03:49;;;;;;;4.57;1.20;;;21.50;50.10;;;;;;4990912;28;20448;-59
2021/10/18 04:06:15;;;;;;;4.43;1.10;;;21.50;50.40;;;;;;4991486;28;20748;-60
2021/10/18 04:08:41;;;;;;;5.78;1.30;;;21.50;50.10;;;;;;4991790;28;20411;-59
2021/10/18 04:11:07;;;;;;;5.80;1.43;;;21.50;51.60;;;;;;4995122;28;20384;-63
2021/10/18 04:13:32;;;;;;;6.65;1.58;;;21.50;51.00;;;;;;4995055;28;20414;-64
2021/10/18 04:15:58;;;;;;;5.20;1.40;;;21.60;51.40;;;;;;4994742;28;20418;-59
2021/10/18 04:18:24;;;;;;;7.88;1.25;;;21.60;51.50;;;;;;4994770;28;20869;-60
2021/10/18 04:20:50;;;;;;;6.77;1.60;;;21.60;51.30;;;;;;4987873;28;20417;-60
2021/10/18 04:23:17;;;;;;;7.63;1.30;;;21.60;50.40;;;;;;4972802;28;20392;-61
2021/10/18 04:25:42;;;;;;;5.53;1.48;;;21.50;50.00;;;;;;4975843;28;20499;-60
2021/10/18 04:28:08;;;;;;;3.60;1.33;;;21.50;50.00;;;;;;4975154;28;20865;-60
2021/10/18 04:30:34;;;;;;;7.13;1.20;;;21.60;50.20;;;;;;4973646;28;20648;-62
2021/10/18 04:32:59;;;;;;;7.38;1.13;;;21.50;49.60;;;;;;4965811;28;20422;-60
2021/10/18 04:35:25;;;;;;;3.97;1.27;;;21.60;49.90;;;;;;4980207;28;20487;-60
2021/10/18 04:37:51;;;;;;;8.75;1.20;;;21.60;49.80;;;;;;4982424;28;20399;-59
2021/10/18 04:40:16;;;;;;;3.80;1.17;;;21.60;50.00;;;;;;4981658;28;20402;-59
2021/10/18 04:42:42;;;;;;;5.75;1.20;;;21.60;50.00;;;;;;4966073;28;20404;-68
2021/10/18 04:45:10;;;;;;;3.13;1.10;;;21.60;50.00;;;;;;4982808;28;20424;-60
2021/10/18 04:47:42;;;;;;;3.08;0.90;;;21.60;49.90;;;;;;4985795;28;20860;-59
2021/10/18 04:50:08;;;;;;;2.95;1.20;;;21.60;49.80;;;;;;4985800;28;20476;-61
2021/10/18 04:52:34;;;;;;;3.10;1.20;;;21.60;49.80;;;;;;4984936;28;20488;-59
2021/10/18 04:54:59;;;;;;;2.53;1.10;;;21.60;49.90;;;;;;4984798;28;20509;-60
2021/10/18 04:57:25;;;;;;;4.10;1.00;;;21.60;49.80;;;;;;4979634;28;20429;-59
2021/10/18 04:59:51;;;;;;;3.90;1.00;;;21.60;49.80;;;;;;4989802;28;20457;-60
2021/10/18 05:02:17;;;;;;;3.22;1.10;;;21.60;49.60;;;;;;4994105;28;20399;-66
2021/10/18 05:04:42;;;;;;;3.50;1.17;;;21.60;49.20;;;;;;4984115;28;20757;-60
2021/10/18 05:07:08;;;;;;;1.52;0.73;;;21.50;49.10;;;;;;4974479;28;20884;-59
2021/10/18 05:09:35;;;;;;;1.77;0.90;;;21.50;49.40;;;;;;4973002;28;20888;-59
2021/10/18 05:12:03;;;;;;;2.17;1.10;;;21.50;49.50;;;;;;4974322;28;20439;-59
2021/10/18 05:14:29;;;;;;;3.17;1.20;;;21.40;49.50;;;;;;4974514;28;20511;-60
2021/10/18 05:16:55;;;;;;;2.87;0.97;;;21.40;49.70;;;;;;4974695;28;20483;-60
2021/10/18 05:19:22;;;;;;;2.40;0.90;;;21.40;49.30;;;;;;4974243;28;20499;-67
2021/10/18 05:21:47;;;;;;;3.40;1.10;;;21.40;49.20;;;;;;4972933;28;20420;-59
2021/10/18 05:24:13;;;;;;;1.90;1.00;;;21.40;48.90;;;;;;4973396;28;20515;-59
2021/10/18 05:26:39;;;;;;;2.75;0.90;;;21.40;49.00;;;;;;4974287;28;20457;-59
2021/10/18 05:29:05;;;;;;;1.67;0.70;;;21.30;49.10;;;;;;4974320;28;20401;-59
2021/10/18 05:31:30;;;;;;;2.50;1.00;;;21.30;48.80;;;;;;4974146;28;20483;-60
2021/10/18 05:33:56;;;;;;;1.75;0.93;;;21.30;48.70;;;;;;4973490;28;20431;-59
2021/10/18 05:36:22;;;;;;;2.27;0.90;;;21.30;48.60;;;;;;4973774;28;20396;-59
2021/10/18 05:38:47;;;;;;;2.65;0.82;;;21.30;48.30;;;;;;4974401;28;20884;-59
2021/10/18 05:41:13;;;;;;;4.00;0.90;;;21.30;48.50;;;;;;4974267;28;20884;-60
2021/10/18 05:43:39;;;;;;;1.42;0.80;;;21.30;48.40;;;;;;4974102;28;20722;-60
2021/10/18 05:46:04;;;;;;;2.43;0.90;;;21.20;48.30;;;;;;4973523;28;20904;-60
2021/10/18 05:48:32;;;;;;;1.35;0.98;;;21.20;48.20;;;;;;4974075;28;20392;-59
2021/10/18 05:50:58;;;;;;;1.70;0.90;;;21.20;48.10;;;;;;4974021;28;20393;-59
2021/10/18 05:53:23;;;;;;;2.10;0.98;;;21.20;48.10;;;;;;4973386;28;20503;-60
2021/10/18 05:55:49;;;;;;;1.27;0.90;;;21.20;48.10;;;;;;4973166;28;20404;-59
2021/10/18 05:58:15;;;;;;;3.25;1.10;;;21.20;48.20;;;;;;4973632;28;20388;-59
2021/10/18 06:00:43;;;;;;;2.10;1.03;;;21.20;48.90;;;;;;4973724;28;20484;-61
2021/10/18 06:03:10;;;;;;;3.50;1.00;;;21.20;48.60;;;;;;4973740;28;20416;-59
2021/10/18 06:05:43;;;;;;;3.63;1.00;;;21.20;48.60;;;;;;4973688;28;20410;-59
2021/10/18 06:08:09;;;;;;;2.83;1.20;;;21.20;48.80;;;;;;4973303;28;20399;-59
2021/10/18 06:10:35;;;;;;;3.63;1.20;;;21.20;48.70;;;;;;4973409;28;20470;-59
2021/10/18 06:13:02;;;;;;;4.10;1.17;;;21.20;48.60;;;;;;4973458;28;20419;-59
2021/10/18 06:15:28;;;;;;;2.22;1.10;;;21.20;48.60;;;;;;4973460;28;20393;-59
2021/10/18 06:17:53;;;;;;;2.20;1.20;;;21.20;48.60;;;;;;4955838;28;20403;-59
2021/10/18 06:20:20;;;;;;;4.32;1.20;;;21.20;48.50;;;;;;4973181;28;20412;-59
2021/10/18 06:22:46;;;;;;;4.63;1.60;;;21.10;48.40;;;;;;4973388;28;20391;-59
2021/10/18 06:25:12;;;;;;;3.08;1.40;;;21.10;48.40;;;;;;4973390;28;20400;-59
2021/10/18 06:27:38;;;;;;;3.15;1.30;;;21.10;48.40;;;;;;4973404;28;20900;-59
2021/10/18 06:30:05;;;;;;;2.20;1.45;;;21.10;48.30;;;;;;4972893;28;20768;-59
2021/10/18 06:32:32;;;;;;;2.45;1.20;;;21.10;48.30;;;;;;4973259;28;20408;-59
2021/10/18 06:34:58;;;;;;;1.85;1.13;;;21.10;48.30;;;;;;4955783;28;20424;-59
2021/10/18 06:37:24;;;;;;;1.95;1.10;;;21.10;48.20;;;;;;4972608;28;20384;-59
2021/10/18 06:39:49;;;;;;;3.33;1.00;;;21.10;48.30;;;;;;4972731;28;20396;-60
2021/10/18 06:42:15;;;;;;;2.03;1.00;;;21.10;48.50;;;;;;4972713;28;20387;-59
2021/10/18 06:44:42;;;;;;;2.70;1.00;;;21.20;48.60;;;;;;4973069;28;20416;-60
2021/10/18 06:47:08;;;;;;;1.80;1.00;;;21.20;48.40;;;;;;4973137;28;20522;-59
2021/10/18 06:49:35;;;;;;;1.75;1.05;;;21.30;48.30;;;;;;4972862;28;20538;-59
2021/10/18 06:52:01;;;;;;;2.30;1.25;;;21.30;48.20;;;;;;4972618;28;20463;-59
2021/10/18 06:54:35;;;;;;;1.73;1.25;;;21.20;47.90;;;;;;4972864;28;20762;-59
2021/10/18 06:57:01;;;;;;;1.33;1.10;;;21.20;47.90;;;;;;4972951;28;20784;-59
2021/10/18 06:59:26;;;;;;;1.90;1.25;;;21.30;48.20;;;;;;4972828;28;20400;-59
2021/10/18 07:01:53;;;;;;;1.50;1.10;;;21.30;48.20;;;;;;4972744;28;20484;-59
2021/10/18 07:04:20;;;;;;;1.83;1.23;;;21.30;48.00;;;;;;4972633;28;20406;-59
2021/10/18 07:06:45;;;;;;;2.40;1.20;;;21.30;47.90;;;;;;4972753;28;20487;-59
2021/10/18 07:09:11;;;;;;;1.63;1.13;;;21.30;47.90;;;;;;4972694;28;20482;-59
2021/10/18 07:11:37;;;;;;;1.80;1.40;;;21.30;47.80;;;;;;4955422;28;20396;-59
2021/10/18 07:14:02;;;;;;;1.93;1.27;;;21.30;48.00;;;;;;4972135;28;20481;-59
2021/10/18 07:16:28;;;;;;;2.05;1.30;;;21.30;47.80;;;;;;4972579;28;20439;-59
2021/10/18 07:18:53;;;;;;;1.57;1.20;;;21.40;47.80;;;;;;4972707;28;20391;-59
2021/10/18 07:21:19;;;;;;;1.35;1.20;;;21.40;47.70;;;;;;4972713;28;20391;-59
2021/10/18 07:23:50;;;;;;;2.37;1.17;;;21.30;47.60;;;;;;4972608;28;20411;-59
2021/10/18 07:26:17;;;;;;;1.50;1.10;;;21.30;47.50;;;;;;4972156;28;20403;-59
2021/10/18 07:28:42;;;;;;;1.40;1.27;;;21.30;47.70;;;;;;4972639;28;20494;-60
2021/10/18 07:31:08;;;;;;;1.70;1.10;;;21.30;47.60;;;;;;4972650;28;20869;-59
2021/10/18 07:33:34;;;;;;;1.70;1.10;;;21.40;47.50;;;;;;4972425;28;20471;-59
2021/10/18 07:36:07;;;;;;;1.75;1.15;;;21.40;47.60;;;;;;4972323;28;20392;-59
2021/10/18 07:38:38;;;;;;;1.40;1.10;;;21.40;47.60;;;;;;4972333;28;20400;-59
2021/10/18 07:41:05;;;;;;;1.63;1.13;;;21.30;47.50;;;;;;4972621;28;20389;-59
2021/10/18 07:43:31;;;;;;;1.52;1.20;;;21.30;47.70;;;;;;4972535;28;20589;-59
2021/10/18 07:45:57;;;;;;;1.67;1.10;;;21.40;47.50;;;;;;4975910;28;20416;-59
2021/10/18 07:48:23;;;;;;;1.30;1.20;;;21.50;47.40;;;;;;4976050;28;20400;-59
2021/10/18 07:50:48;;;;;;;1.48;1.20;;;21.50;47.40;;;;;;4976171;28;20403;-59
2021/10/18 07:53:14;;;;;;;1.50;1.30;;;21.40;47.30;;;;;;4975928;28;20416;-59
2021/10/18 07:55:40;;;;;;;1.73;1.23;;;21.40;47.20;;;;;;4975525;28;20422;-60
2021/10/18 07:58:05;;;;;;;1.60;1.20;;;21.40;47.30;;;;;;4975463;28;20388;-59
2021/10/18 08:00:33;;;;;;;1.40;1.00;;;21.40;47.50;;;;;;4976080;28;20404;-59
2021/10/18 08:02:58;;;;;;;1.42;1.10;;;21.50;47.30;;;;;;4976061;28;20479;-59
2021/10/18 08:05:26;;;;;;;1.30;1.10;;;21.50;47.30;;;;;;4975974;28;20492;-59
2021/10/18 08:07:52;;;;;;;1.65;1.40;;;21.50;47.30;;;;;;4975879;28;20411;-59
2021/10/18 08:10:25;;;;;;;1.67;1.30;;;21.50;47.10;;;;;;4975299;28;20500;-59
2021/10/18 08:12:58;;;;;;;1.40;1.25;;;21.50;47.30;;;;;;4975694;28;20479;-59
2021/10/18 08:15:27;;;;;;;1.80;1.30;;;21.50;47.50;;;;;;4975851;28;20408;-59
2021/10/18 08:17:53;;;;;;;1.33;1.20;;;21.60;47.40;;;;;;4975744;28;20465;-59
2021/10/18 08:20:20;;;;;;;2.10;1.27;;;21.60;47.20;;;;;;4975278;28;20403;-59
2021/10/18 08:22:46;;;;;;;1.98;1.27;;;21.60;47.30;;;;;;4975620;28;20511;-60
2021/10/18 08:25:12;;;;;;;1.70;1.20;;;21.60;47.30;;;;;;4975616;28;20483;-59
2021/10/18 08:27:38;;;;;;;1.58;1.23;;;21.50;47.30;;;;;;4975509;28;20869;-59
2021/10/18 08:30:05;;;;;;;1.70;1.10;;;21.60;47.50;;;;;;4975064;28;20428;-59
2021/10/18 08:32:31;;;;;;;1.38;1.10;;;21.60;47.30;;;;;;4975485;28;20392;-59
2021/10/18 08:34:57;;;;;;;1.60;1.20;;;21.70;47.30;;;;;;4975398;28;20428;-59
2021/10/18 08:38:14;;;;;;;1.50;1.10;;;21.70;47.20;;;;;;4975435;28;20395;-59
2021/10/18 08:40:09;;;;;;;1.48;1.23;;;21.60;47.00;;;;;;4974483;28;20404;-59
2021/10/18 08:42:43;;;;;;;1.60;1.13;;;21.60;47.00;;;;;;4975249;28;20392;-59
2021/10/18 08:45:08;;;;;;;1.30;1.13;;;21.60;47.30;;;;;;4975163;28;20495;-59
2021/10/18 08:47:35;;;;;;;1.53;1.13;;;21.70;47.20;;;;;;4975168;28;20543;-59
2021/10/18 08:50:01;;;;;;;1.57;1.20;;;21.70;47.10;;;;;;4974995;28;20928;-59
2021/10/18 08:52:26;;;;;;;1.45;1.20;;;21.70;47.20;;;;;;4975191;28;20397;-59
2021/10/18 08:54:52;;;;;;;1.87;1.33;;;21.70;47.20;;;;;;4974571;28;20424;-59
2021/10/18 08:57:17;;;;;;;1.60;1.10;;;21.70;47.20;;;;;;4974348;28;20392;-59
2021/10/18 08:59:43;;;;;;;1.70;1.23;;;21.70;47.00;;;;;;4974918;28;20407;-59
2021/10/18 09:02:09;;;;;;;1.40;1.10;;;21.80;47.30;;;;;;4974590;28;20396;-59
2021/10/18 09:04:39;;;;;;;1.50;1.20;;;21.80;47.20;;;;;;4974854;28;20405;-59
2021/10/18 09:07:15;;;;;;;1.50;1.20;;;21.80;47.10;;;;;;4974891;28;20427;-59
2021/10/18 09:09:47;;;;;;;2.08;1.10;;;21.80;47.30;;;;;;4974795;28;20407;-59
2021/10/18 09:12:35;;;;;;;1.38;0.98;;;21.80;47.20;;;;;;4973743;28;20393;-59
2021/10/18 09:15:21;;;;;;;1.38;1.10;;;21.80;47.30;;;;;;4974512;28;20494;-59
2021/10/18 09:17:58;;;;;;;1.27;1.02;;;21.80;47.20;;;;;;4974644;28;20400;-59
2021/10/18 09:20:25;;;;;;;1.48;1.17;;;21.90;47.10;;;;;;4974264;28;20376;-59
2021/10/18 09:22:53;;;;;;;1.90;1.30;;;21.90;47.00;;;;;;4974584;28;20498;-59
2021/10/18 09:25:36;;;;;;;1.75;1.30;;;21.90;47.10;;;;;;4974566;28;20488;-59
2021/10/18 09:28:13;;;;;;;1.42;1.00;;;21.80;47.20;;;;;;4974295;28;20396;-59
2021/10/18 09:30:48;;;;;;;1.50;1.10;;;21.90;47.10;;;;;;4974425;28;20392;-60
2021/10/18 09:33:24;;;;;;;1.65;1.10;;;21.90;47.00;;;;;;4974249;28;20788;-59
2021/10/18 09:35:52;;;;;;;2.17;1.10;;;21.90;46.80;;;;;;4974319;28;20427;-59
2021/10/18 09:38:20;;;;;;;2.05;1.15;;;21.90;46.90;;;;;;4973895;28;20467;-59
2021/10/18 09:40:47;;;;;;;1.50;1.10;;;21.90;47.00;;;;;;4974167;28;20479;-59
2021/10/18 09:43:25;;;;;;;1.50;1.00;;;21.90;47.00;;;;;;4974049;28;20475;-59
2021/10/18 09:45:57;;;;;;;1.30;1.10;;;21.90;47.10;;;;;;4974052;28;20496;-59
2021/10/18 10:53:33;;;;;;;2.15;1.60;;;22.10;46.20;;;;;;4972928;28;20848;-59
2021/10/18 10:56:16;;;;;;;2.50;1.80;;;22.10;46.20;;;;;;4973047;28;20392;-59
2021/10/18 10:58:50;;;;;;;2.35;1.75;;;22.00;46.20;;;;;;4972854;28;20769;-60
2021/10/18 11:02:11;;;;;;;2.25;1.70;;;22.10;46.50;;;;;;4972834;28;20448;-59
2021/10/18 11:04:40;;;;;;;1.93;1.70;;;22.20;46.20;;;;;;4949897;28;20443;-60
2021/10/18 11:07:16;;;;;;;2.30;1.80;;;22.20;46.20;;;;;;4972810;28;20388;-59
2021/10/18 11:09:55;;;;;;;2.22;1.90;;;22.10;46.10;;;;;;4972737;28;20445;-59
2021/10/18 11:12:21;;;;;;;2.13;1.63;;;22.10;46.70;;;;;;4972347;28;20792;-59
2021/10/18 11:15:02;;;;;;;2.33;1.58;;;22.10;46.30;;;;;;4971999;28;20459;-59
2021/10/18 11:17:31;;;;;;;1.92;1.52;;;22.10;46.30;;;;;;4972664;28;20468;-59
2021/10/18 11:20:00;;;;;;;1.63;1.50;;;22.20;46.20;;;;;;4972110;28;20449;-59
2021/10/18 11:22:40;;;;;;;2.40;1.85;;;22.20;46.10;;;;;;4972145;28;20392;-59
2021/10/18 11:25:16;;;;;;;2.40;1.98;;;22.20;46.30;;;;;;4972704;28;20380;-59
2021/10/18 11:27:44;;;;;;;2.60;1.80;;;22.10;46.20;;;;;;4972631;28;20403;-60
2021/10/18 11:30:15;;;;;;;2.30;1.80;;;22.10;46.20;;;;;;4972394;28;20447;-59
2021/10/18 11:32:42;;;;;;;2.10;1.70;;;22.20;46.20;;;;;;4972542;28;20411;-59
2021/10/18 11:35:20;;;;;;;2.45;2.00;;;22.20;46.20;;;;;;4972561;28;20419;-59
2021/10/18 11:37:55;;;;;;;2.90;2.10;;;22.30;46.20;;;;;;4972483;28;20472;-59
2021/10/18 11:40:46;;;;;;;2.30;1.95;;;22.20;46.10;;;;;;4954740;28;20404;-59
2021/10/18 11:43:16;;;;;;;3.00;2.30;;;22.20;46.10;;;;;;4972479;28;20458;-59
2021/10/18 11:45:44;;;;;;;2.42;2.00;;;22.20;46.10;;;;;;4972298;28;20415;-59
2021/10/18 11:48:21;;;;;;;2.10;1.80;;;22.30;46.10;;;;;;4972295;28;20412;-59
2021/10/18 11:50:52;;;;;;;2.15;1.80;;;22.30;45.90;;;;;;4972274;28;20483;-59
2021/10/18 11:53:26;;;;;;;2.60;1.80;;;22.30;45.90;;;;;;4972377;28;20420;-59
2021/10/18 11:55:54;;;;;;;2.35;1.90;;;22.30;46.00;;;;;;4972322;28;20808;-59
2021/10/18 11:58:25;;;;;;;2.58;1.63;;;22.30;46.00;;;;;;4971872;28;20411;-62
2021/10/18 12:01:05;;;;;;;7.82;3.80;;;22.20;46.70;;;;;;4972056;28;20431;-64
2021/10/18 12:03:33;;;;;;;10.45;5.20;;;22.30;46.10;;;;;;4972205;28;20392;-59
2021/10/18 12:06:02;;;;;;;9.68;4.70;;;22.30;45.80;;;;;;4972027;28;20395;-60
2021/10/18 12:08:29;;;;;;;13.43;4.95;;;22.30;45.70;;;;;;4971214;28;20805;-64
2021/10/18 12:10:56;;;;;;;7.65;4.00;;;22.30;45.80;;;;;;4979846;28;20467;-60
2021/10/18 12:13:35;;;;;;;7.85;3.70;;;22.20;46.10;;;;;;4987901;28;20416;-70
2021/10/18 12:16:08;;;;;;;4.50;3.22;;;22.20;46.30;;;;;;4980907;28;20429;-63
2021/10/18 12:18:45;;;;;;;9.00;4.38;;;22.30;46.30;;;;;;4977235;28;20863;-64
2021/10/18 12:21:24;;;;;;;7.70;3.60;;;22.40;46.10;;;;;;4977832;28;20500;-60
2021/10/18 12:23:49;;;;;;;9.15;3.58;;;22.30;46.00;;;;;;4977259;28;20432;-60
2021/10/18 12:26:17;;;;;;;8.80;3.38;;;22.30;46.00;;;;;;4978213;28;20437;-60
2021/10/18 12:28:57;;;;;;;7.03;3.20;;;22.30;46.10;;;;;;4975880;28;20432;-60
2021/10/18 12:31:38;;;;;;;8.05;2.95;;;22.30;46.40;;;;;;4981288;28;20396;-60
2021/10/18 12:34:23;;;;;;;5.25;2.78;;;22.50;46.60;;;;;;4979029;28;20900;-60
2021/10/18 12:37:04;;;;;;;5.38;2.30;;;22.50;46.20;;;;;;4980458;28;20459;-61
2021/10/18 12:39:49;;;;;;;4.60;2.47;;;22.50;46.20;;;;;;4980768;28;20596;-60
2021/10/18 12:42:34;;;;;;;3.55;2.35;;;22.50;46.10;;;;;;4982841;28;20479;-60
2021/10/18 12:45:06;;;;;;;4.60;2.50;;;22.50;46.20;;;;;;4984255;28;20418;-60
2021/10/18 12:47:35;;;;;;;7.50;2.50;;;22.50;46.20;;;;;;4994799;28;20868;-60
2021/10/18 12:50:06;;;;;;;4.32;2.40;;;22.60;46.10;;;;;;4994546;28;20482;-60
2021/10/18 12:52:39;;;;;;;3.90;2.22;;;22.70;46.40;;;;;;4984483;28;20923;-61
2021/10/18 12:55:16;;;;;;;4.47;1.88;;;22.70;50.00;;;;;;4983165;28;20973;-60
2021/10/18 12:57:54;;;;;;;4.13;2.08;;;24.10;48.40;;;;;;4981375;28;20487;-61
2021/10/18 13:00:30;;;;;;;4.85;2.10;;;25.00;47.30;;;;;;4990370;28;20422;-61
2021/10/18 13:02:58;;;;;;;3.42;1.90;;;25.20;45.90;;;;;;4990381;28;20875;-60
2021/10/18 13:05:26;;;;;;;2.63;1.65;;;25.40;45.60;;;;;;4983296;28;20396;-62
2021/10/18 13:07:58;;;;;;;3.78;1.77;;;25.70;45.00;;;;;;4986270;28;20455;-61
2021/10/18 13:10:28;;;;;;;3.17;1.90;;;25.80;44.70;;;;;;4978939;28;20425;-60
2021/10/18 13:12:54;;;;;;;3.70;1.63;;;25.90;44.60;;;;;;4982411;28;20400;-61
2021/10/18 13:15:21;;;;;;;4.35;1.80;;;25.90;44.50;;;;;;4974040;28;20445;-61
2021/10/18 13:17:47;;;;;;;2.75;1.60;;;25.90;44.30;;;;;;4978841;28;20392;-60
2021/10/18 13:20:18;;;;;;;2.20;1.70;;;25.90;44.50;;;;;;4980197;28;20836;-60
2021/10/18 13:22:46;;;;;;;2.50;1.50;;;26.10;44.20;;;;;;4979477;28;20384;-61
2021/10/18 13:25:13;;;;;;;3.30;1.90;;;26.20;44.00;;;;;;4976734;28;20396;-61
2021/10/18 13:27:39;;;;;;;3.03;1.58;;;26.10;43.60;;;;;;4976810;28;20416;-61
2021/10/18 13:30:07;;;;;;;2.80;1.70;;;26.10;43.80;;;;;;4974663;28;20404;-61
2021/10/18 13:32:36;;;;;;;3.40;1.60;;;26.20;43.90;;;;;;4974246;28;20751;-62
2021/10/18 13:35:03;;;;;;;4.20;1.90;;;26.20;43.60;;;;;;4984754;28;20523;-60
2021/10/18 13:37:29;;;;;;;2.22;1.60;;;26.20;43.50;;;;;;4975160;28;20389;-61
2021/10/18 13:39:55;;;;;;;2.63;1.90;;;26.30;43.90;;;;;;4973838;28;20403;-61
2021/10/18 13:42:21;;;;;;;2.10;1.77;;;26.30;43.30;;;;;;4972866;28;20396;-60
2021/10/18 13:44:47;;;;;;;2.65;1.90;;;26.20;42.90;;;;;;4974009;28;20423;-60
2021/10/18 13:47:13;;;;;;;2.20;1.97;;;26.20;42.60;;;;;;4974126;28;20404;-61
2021/10/18 13:49:39;;;;;;;3.10;1.90;;;26.20;42.80;;;;;;4974052;28;20392;-62
2021/10/18 13:52:05;;;;;;;3.88;2.20;;;26.30;42.70;;;;;;4974046;28;20459;-69
2021/10/18 13:54:32;;;;;;;3.30;2.17;;;26.20;42.10;;;;;;4973323;28;20813;-69